sensor_id;sensor_type;location;lat;lon;timestamp;P1;durP1;ratioP1;P2;durP2;ratioP2
12212;SDS011;6169;44.158;22.788;2022-08-19T00:01:49;5.03;;;4.53;;
12212;SDS011;6169;44.158;22.788;2022-08-19T00:06:54;5.20;;;4.53;;
12212;SDS011;6169;44.158;22.788;2022-08-19T00:11:57;5.22;;;4.70;;
12212;SDS011;6169;44.158;22.788;2022-08-19T00:17:00;6.38;;;4.68;;
12212;SDS011;6169;44.158;22.788;2022-08-19T00:22:04;7.55;;;5.22;;
12212;SDS011;6169;44.158;22.788;2022-08-19T00:27:06;7.22;;;5.35;;
12212;SDS011;6169;44.158;22.788;2022-08-19T00:32:08;6.50;;;4.72;;
12212;SDS011;6169;44.158;22.788;2022-08-19T00:37:12;5.97;;;4.80;;
12212;SDS011;6169;44.158;22.788;2022-08-19T00:42:14;5.55;;;5.05;;
12212;SDS011;6169;44.158;22.788;2022-08-19T00:47:17;6.90;;;5.47;;
12212;SDS011;6169;44.158;22.788;2022-08-19T00:52:23;5.13;;;4.65;;
12212;SDS011;6169;44.158;22.788;2022-08-19T00:57:30;4.03;;;3.60;;
12212;SDS011;6169;44.158;22.788;2022-08-19T01:02:36;9.85;;;4.93;;
12212;SDS011;6169;44.158;22.788;2022-08-19T01:07:41;5.93;;;4.82;;
12212;SDS011;6169;44.158;22.788;2022-08-19T01:12:45;6.97;;;4.43;;
12212;SDS011;6169;44.158;22.788;2022-08-19T01:17:48;6.93;;;5.30;;
12212;SDS011;6169;44.158;22.788;2022-08-19T01:22:52;4.30;;;4.00;;
12212;SDS011;6169;44.158;22.788;2022-08-19T01:27:57;5.38;;;4.15;;
12212;SDS011;6169;44.158;22.788;2022-08-19T01:33:00;4.65;;;4.25;;
12212;SDS011;6169;44.158;22.788;2022-08-19T01:38:07;4.85;;;4.22;;
12212;SDS011;6169;44.158;22.788;2022-08-19T01:43:11;5.18;;;4.75;;
12212;SDS011;6169;44.158;22.788;2022-08-19T01:48:13;5.15;;;4.60;;
12212;SDS011;6169;44.158;22.788;2022-08-19T01:53:17;6.10;;;4.60;;
12212;SDS011;6169;44.158;22.788;2022-08-19T01:58:21;4.05;;;3.72;;
12212;SDS011;6169;44.158;22.788;2022-08-19T02:03:29;8.63;;;4.85;;
12212;SDS011;6169;44.158;22.788;2022-08-19T02:08:34;5.03;;;4.53;;
12212;SDS011;6169;44.158;22.788;2022-08-19T02:13:38;5.13;;;4.07;;
12212;SDS011;6169;44.158;22.788;2022-08-19T02:18:40;7.75;;;4.97;;
12212;SDS011;6169;44.158;22.788;2022-08-19T02:23:44;7.55;;;4.72;;
12212;SDS011;6169;44.158;22.788;2022-08-19T02:28:47;6.00;;;5.05;;
12212;SDS011;6169;44.158;22.788;2022-08-19T02:33:49;8.25;;;5.43;;
12212;SDS011;6169;44.158;22.788;2022-08-19T02:38:54;5.28;;;4.72;;
12212;SDS011;6169;44.158;22.788;2022-08-19T02:43:57;5.22;;;4.25;;
12212;SDS011;6169;44.158;22.788;2022-08-19T02:49:02;9.73;;;5.28;;
12212;SDS011;6169;44.158;22.788;2022-08-19T02:54:08;6.13;;;5.45;;
12212;SDS011;6169;44.158;22.788;2022-08-19T02:59:11;5.63;;;4.82;;
12212;SDS011;6169;44.158;22.788;2022-08-19T03:04:14;5.40;;;4.90;;
12212;SDS011;6169;44.158;22.788;2022-08-19T03:09:19;5.18;;;4.68;;
12212;SDS011;6169;44.158;22.788;2022-08-19T03:14:22;6.40;;;5.53;;
12212;SDS011;6169;44.158;22.788;2022-08-19T03:19:24;7.57;;;5.05;;
12212;SDS011;6169;44.158;22.788;2022-08-19T03:24:29;6.55;;;5.00;;
12212;SDS011;6169;44.158;22.788;2022-08-19T03:29:31;7.82;;;5.07;;
12212;SDS011;6169;44.158;22.788;2022-08-19T03:34:34;10.02;;;5.75;;
12212;SDS011;6169;44.158;22.788;2022-08-19T03:39:40;7.90;;;5.22;;
12212;SDS011;6169;44.158;22.788;2022-08-19T03:44:42;8.77;;;5.65;;
12212;SDS011;6169;44.158;22.788;2022-08-19T03:49:45;7.43;;;5.30;;
12212;SDS011;6169;44.158;22.788;2022-08-19T03:54:48;13.82;;;5.72;;
12212;SDS011;6169;44.158;22.788;2022-08-19T03:59:51;12.40;;;5.35;;
12212;SDS011;6169;44.158;22.788;2022-08-19T04:04:54;11.65;;;6.70;;
12212;SDS011;6169;44.158;22.788;2022-08-19T04:09:57;11.13;;;5.30;;
12212;SDS011;6169;44.158;22.788;2022-08-19T04:15:00;9.48;;;5.35;;
12212;SDS011;6169;44.158;22.788;2022-08-19T04:20:03;9.45;;;5.45;;
12212;SDS011;6169;44.158;22.788;2022-08-19T04:25:07;11.38;;;5.97;;
12212;SDS011;6169;44.158;22.788;2022-08-19T04:30:11;11.82;;;5.50;;
12212;SDS011;6169;44.158;22.788;2022-08-19T04:35:14;10.18;;;5.38;;
12212;SDS011;6169;44.158;22.788;2022-08-19T04:40:18;7.68;;;5.05;;
12212;SDS011;6169;44.158;22.788;2022-08-19T04:45:37;7.20;;;5.20;;
12212;SDS011;6169;44.158;22.788;2022-08-19T04:50:41;9.25;;;4.90;;
12212;SDS011;6169;44.158;22.788;2022-08-19T04:55:45;7.93;;;5.63;;
12212;SDS011;6169;44.158;22.788;2022-08-19T05:00:47;11.50;;;5.95;;
12212;SDS011;6169;44.158;22.788;2022-08-19T05:05:49;9.77;;;5.57;;
12212;SDS011;6169;44.158;22.788;2022-08-19T05:10:53;11.73;;;5.47;;
12212;SDS011;6169;44.158;22.788;2022-08-19T05:15:56;7.95;;;5.22;;
12212;SDS011;6169;44.158;22.788;2022-08-19T05:21:01;10.10;;;6.22;;
12212;SDS011;6169;44.158;22.788;2022-08-19T05:26:26;6.78;;;5.45;;
12212;SDS011;6169;44.158;22.788;2022-08-19T05:31:29;10.43;;;7.20;;
12212;SDS011;6169;44.158;22.788;2022-08-19T05:36:33;10.48;;;7.40;;
12212;SDS011;6169;44.158;22.788;2022-08-19T05:41:42;10.38;;;8.07;;
12212;SDS011;6169;44.158;22.788;2022-08-19T05:46:44;11.13;;;7.65;;
12212;SDS011;6169;44.158;22.788;2022-08-19T05:51:47;16.15;;;7.68;;
12212;SDS011;6169;44.158;22.788;2022-08-19T05:56:52;6.68;;;5.88;;
12212;SDS011;6169;44.158;22.788;2022-08-19T06:01:55;9.65;;;8.55;;
12212;SDS011;6169;44.158;22.788;2022-08-19T06:06:57;15.10;;;11.13;;
12212;SDS011;6169;44.158;22.788;2022-08-19T06:12:03;14.25;;;9.30;;
12212;SDS011;6169;44.158;22.788;2022-08-19T06:17:06;10.60;;;9.45;;
12212;SDS011;6169;44.158;22.788;2022-08-19T06:22:08;15.60;;;8.23;;
12212;SDS011;6169;44.158;22.788;2022-08-19T06:27:13;11.27;;;9.55;;
12212;SDS011;6169;44.158;22.788;2022-08-19T06:32:16;17.50;;;9.93;;
12212;SDS011;6169;44.158;22.788;2022-08-19T06:37:19;10.02;;;8.93;;
12212;SDS011;6169;44.158;22.788;2022-08-19T06:42:23;17.13;;;9.30;;
12212;SDS011;6169;44.158;22.788;2022-08-19T06:47:26;12.85;;;9.93;;
12212;SDS011;6169;44.158;22.788;2022-08-19T06:52:28;11.77;;;9.90;;
12212;SDS011;6169;44.158;22.788;2022-08-19T06:57:32;17.35;;;10.30;;
12212;SDS011;6169;44.158;22.788;2022-08-19T07:02:35;10.88;;;9.38;;
12212;SDS011;6169;44.158;22.788;2022-08-19T07:07:38;12.95;;;9.27;;
12212;SDS011;6169;44.158;22.788;2022-08-19T07:12:44;13.18;;;9.88;;
12212;SDS011;6169;44.158;22.788;2022-08-19T07:17:47;11.75;;;10.25;;
12212;SDS011;6169;44.158;22.788;2022-08-19T07:22:51;12.02;;;10.77;;
12212;SDS011;6169;44.158;22.788;2022-08-19T07:27:55;13.35;;;9.82;;
12212;SDS011;6169;44.158;22.788;2022-08-19T07:32:57;50.13;;;16.13;;
12212;SDS011;6169;44.158;22.788;2022-08-19T07:38:00;14.77;;;10.90;;
12212;SDS011;6169;44.158;22.788;2022-08-19T07:43:05;10.43;;;9.25;;
12212;SDS011;6169;44.158;22.788;2022-08-19T07:48:07;12.98;;;10.43;;
12212;SDS011;6169;44.158;22.788;2022-08-19T07:53:10;11.90;;;10.15;;
12212;SDS011;6169;44.158;22.788;2022-08-19T07:58:15;11.88;;;9.95;;
12212;SDS011;6169;44.158;22.788;2022-08-19T08:03:20;12.43;;;9.13;;
12212;SDS011;6169;44.158;22.788;2022-08-19T08:08:44;12.70;;;9.32;;
12212;SDS011;6169;44.158;22.788;2022-08-19T08:14:05;16.85;;;9.73;;
12212;SDS011;6169;44.158;22.788;2022-08-19T08:19:08;17.35;;;10.48;;
12212;SDS011;6169;44.158;22.788;2022-08-19T08:24:10;11.45;;;9.50;;
12212;SDS011;6169;44.158;22.788;2022-08-19T08:29:14;17.23;;;9.95;;
12212;SDS011;6169;44.158;22.788;2022-08-19T08:34:16;13.93;;;9.55;;
12212;SDS011;6169;44.158;22.788;2022-08-19T08:39:19;15.25;;;10.20;;
12212;SDS011;6169;44.158;22.788;2022-08-19T08:44:38;11.52;;;8.80;;
12212;SDS011;6169;44.158;22.788;2022-08-19T08:49:48;14.13;;;9.00;;
12212;SDS011;6169;44.158;22.788;2022-08-19T08:54:54;19.80;;;9.48;;
12212;SDS011;6169;44.158;22.788;2022-08-19T09:00:03;15.43;;;9.88;;
12212;SDS011;6169;44.158;22.788;2022-08-19T09:05:08;16.42;;;9.50;;
12212;SDS011;6169;44.158;22.788;2022-08-19T09:10:14;16.92;;;9.02;;
12212;SDS011;6169;44.158;22.788;2022-08-19T09:15:25;14.43;;;9.25;;
12212;SDS011;6169;44.158;22.788;2022-08-19T09:20:32;16.60;;;11.73;;
12212;SDS011;6169;44.158;22.788;2022-08-19T09:25:34;15.27;;;12.30;;
12212;SDS011;6169;44.158;22.788;2022-08-19T09:30:40;10.63;;;9.55;;
12212;SDS011;6169;44.158;22.788;2022-08-19T09:35:43;10.13;;;9.13;;
12212;SDS011;6169;44.158;22.788;2022-08-19T09:40:45;15.70;;;10.55;;
12212;SDS011;6169;44.158;22.788;2022-08-19T09:45:48;12.93;;;10.73;;
12212;SDS011;6169;44.158;22.788;2022-08-19T09:50:50;10.43;;;9.38;;
12212;SDS011;6169;44.158;22.788;2022-08-19T09:55:54;9.48;;;8.00;;
12212;SDS011;6169;44.158;22.788;2022-08-19T10:00:58;12.20;;;8.52;;
12212;SDS011;6169;44.158;22.788;2022-08-19T10:06:03;13.38;;;8.50;;
12212;SDS011;6169;44.158;22.788;2022-08-19T10:11:06;11.40;;;9.10;;
12212;SDS011;6169;44.158;22.788;2022-08-19T10:16:13;8.93;;;8.02;;
12212;SDS011;6169;44.158;22.788;2022-08-19T10:21:17;11.98;;;7.65;;
12212;SDS011;6169;44.158;22.788;2022-08-19T10:26:21;9.95;;;7.60;;
12212;SDS011;6169;44.158;22.788;2022-08-19T10:31:27;11.00;;;7.40;;
12212;SDS011;6169;44.158;22.788;2022-08-19T10:36:34;8.00;;;7.13;;
12212;SDS011;6169;44.158;22.788;2022-08-19T10:41:39;8.68;;;7.30;;
12212;SDS011;6169;44.158;22.788;2022-08-19T10:46:45;18.10;;;7.90;;
12212;SDS011;6169;44.158;22.788;2022-08-19T10:51:47;8.45;;;6.32;;
12212;SDS011;6169;44.158;22.788;2022-08-19T10:57:06;8.25;;;6.05;;
12212;SDS011;6169;44.158;22.788;2022-08-19T11:02:10;7.65;;;6.57;;
12212;SDS011;6169;44.158;22.788;2022-08-19T11:07:13;7.70;;;5.97;;
12212;SDS011;6169;44.158;22.788;2022-08-19T11:12:16;12.77;;;5.90;;
12212;SDS011;6169;44.158;22.788;2022-08-19T11:17:21;8.45;;;5.18;;
12212;SDS011;6169;44.158;22.788;2022-08-19T11:22:23;6.32;;;5.53;;
12212;SDS011;6169;44.158;22.788;2022-08-19T11:27:25;6.82;;;6.10;;
12212;SDS011;6169;44.158;22.788;2022-08-19T11:32:30;6.63;;;6.00;;
12212;SDS011;6169;44.158;22.788;2022-08-19T11:37:34;8.98;;;7.55;;
12212;SDS011;6169;44.158;22.788;2022-08-19T11:42:38;7.28;;;6.68;;
12212;SDS011;6169;44.158;22.788;2022-08-19T11:48:00;9.32;;;6.13;;
12212;SDS011;6169;44.158;22.788;2022-08-19T11:53:03;9.13;;;6.45;;
12212;SDS011;6169;44.158;22.788;2022-08-19T11:58:06;13.00;;;6.18;;
12212;SDS011;6169;44.158;22.788;2022-08-19T12:03:09;10.13;;;6.53;;
12212;SDS011;6169;44.158;22.788;2022-08-19T12:08:12;6.72;;;6.03;;
12212;SDS011;6169;44.158;22.788;2022-08-19T12:13:15;6.05;;;5.53;;
12212;SDS011;6169;44.158;22.788;2022-08-19T12:18:20;9.40;;;6.07;;
12212;SDS011;6169;44.158;22.788;2022-08-19T12:23:22;10.57;;;5.93;;
12212;SDS011;6169;44.158;22.788;2022-08-19T12:28:24;7.88;;;4.45;;
12212;SDS011;6169;44.158;22.788;2022-08-19T12:33:28;10.18;;;5.10;;
12212;SDS011;6169;44.158;22.788;2022-08-19T12:38:32;6.82;;;5.07;;
12212;SDS011;6169;44.158;22.788;2022-08-19T12:43:35;7.15;;;4.82;;
12212;SDS011;6169;44.158;22.788;2022-08-19T12:48:40;4.70;;;4.30;;
12212;SDS011;6169;44.158;22.788;2022-08-19T12:53:43;5.65;;;4.68;;
12212;SDS011;6169;44.158;22.788;2022-08-19T12:58:45;5.55;;;4.75;;
12212;SDS011;6169;44.158;22.788;2022-08-19T13:03:49;10.07;;;5.35;;
12212;SDS011;6169;44.158;22.788;2022-08-19T13:08:53;7.60;;;4.28;;
12212;SDS011;6169;44.158;22.788;2022-08-19T13:13:57;8.05;;;4.75;;
12212;SDS011;6169;44.158;22.788;2022-08-19T13:19:01;6.18;;;4.25;;
12212;SDS011;6169;44.158;22.788;2022-08-19T13:24:05;7.28;;;4.35;;
12212;SDS011;6169;44.158;22.788;2022-08-19T13:29:08;7.78;;;4.72;;
12212;SDS011;6169;44.158;22.788;2022-08-19T13:34:29;5.10;;;4.05;;
12212;SDS011;6169;44.158;22.788;2022-08-19T13:39:34;6.50;;;4.53;;
12212;SDS011;6169;44.158;22.788;2022-08-19T13:44:37;5.07;;;3.92;;
12212;SDS011;6169;44.158;22.788;2022-08-19T13:49:40;7.85;;;4.32;;
12212;SDS011;6169;44.158;22.788;2022-08-19T13:54:42;10.25;;;4.05;;
12212;SDS011;6169;44.158;22.788;2022-08-19T13:59:45;8.07;;;4.13;;
12212;SDS011;6169;44.158;22.788;2022-08-19T14:04:48;9.55;;;4.80;;
12212;SDS011;6169;44.158;22.788;2022-08-19T14:09:51;5.93;;;3.95;;
12212;SDS011;6169;44.158;22.788;2022-08-19T14:14:53;4.93;;;4.15;;
12212;SDS011;6169;44.158;22.788;2022-08-19T14:19:57;8.20;;;3.78;;
12212;SDS011;6169;44.158;22.788;2022-08-19T14:25:01;5.72;;;4.57;;
12212;SDS011;6169;44.158;22.788;2022-08-19T14:30:04;6.15;;;4.35;;
12212;SDS011;6169;44.158;22.788;2022-08-19T14:35:09;6.03;;;4.40;;
12212;SDS011;6169;44.158;22.788;2022-08-19T14:40:13;6.15;;;3.92;;
12212;SDS011;6169;44.158;22.788;2022-08-19T14:45:17;8.02;;;4.57;;
12212;SDS011;6169;44.158;22.788;2022-08-19T14:50:21;5.32;;;3.67;;
12212;SDS011;6169;44.158;22.788;2022-08-19T14:55:23;10.25;;;4.20;;
12212;SDS011;6169;44.158;22.788;2022-08-19T15:00:25;4.40;;;3.95;;
12212;SDS011;6169;44.158;22.788;2022-08-19T15:05:30;7.53;;;4.30;;
12212;SDS011;6169;44.158;22.788;2022-08-19T15:10:32;8.38;;;3.85;;
12212;SDS011;6169;44.158;22.788;2022-08-19T15:15:34;9.70;;;4.18;;
12212;SDS011;6169;44.158;22.788;2022-08-19T15:20:38;6.05;;;3.55;;
12212;SDS011;6169;44.158;22.788;2022-08-19T15:25:41;7.03;;;4.80;;
12212;SDS011;6169;44.158;22.788;2022-08-19T15:30:43;6.53;;;5.40;;
12212;SDS011;6169;44.158;22.788;2022-08-19T15:35:47;8.65;;;5.78;;
12212;SDS011;6169;44.158;22.788;2022-08-19T15:40:51;10.55;;;4.82;;
12212;SDS011;6169;44.158;22.788;2022-08-19T15:46:15;9.93;;;4.93;;
12212;SDS011;6169;44.158;22.788;2022-08-19T15:51:21;5.88;;;5.05;;
12212;SDS011;6169;44.158;22.788;2022-08-19T15:56:24;7.63;;;6.15;;
12212;SDS011;6169;44.158;22.788;2022-08-19T16:01:26;13.05;;;11.70;;
12212;SDS011;6169;44.158;22.788;2022-08-19T16:06:44;7.55;;;5.00;;
12212;SDS011;6169;44.158;22.788;2022-08-19T16:11:48;6.68;;;4.50;;
12212;SDS011;6169;44.158;22.788;2022-08-19T16:16:51;13.07;;;4.93;;
12212;SDS011;6169;44.158;22.788;2022-08-19T16:21:57;5.30;;;4.80;;
12212;SDS011;6169;44.158;22.788;2022-08-19T16:26:59;5.80;;;5.15;;
12212;SDS011;6169;44.158;22.788;2022-08-19T16:32:02;8.88;;;5.13;;
12212;SDS011;6169;44.158;22.788;2022-08-19T16:37:06;6.82;;;4.50;;
12212;SDS011;6169;44.158;22.788;2022-08-19T16:42:10;7.70;;;5.22;;
12212;SDS011;6169;44.158;22.788;2022-08-19T16:47:13;9.40;;;4.90;;
12212;SDS011;6169;44.158;22.788;2022-08-19T16:52:18;21.75;;;9.70;;
12212;SDS011;6169;44.158;22.788;2022-08-19T16:57:20;29.98;;;11.73;;
12212;SDS011;6169;44.158;22.788;2022-08-19T17:02:24;29.80;;;10.70;;
12212;SDS011;6169;44.158;22.788;2022-08-19T17:07:29;23.58;;;10.02;;
12212;SDS011;6169;44.158;22.788;2022-08-19T17:12:31;72.43;;;14.60;;
12212;SDS011;6169;44.158;22.788;2022-08-19T17:17:34;20.13;;;7.47;;
12212;SDS011;6169;44.158;22.788;2022-08-19T17:22:37;95.53;;;12.38;;
12212;SDS011;6169;44.158;22.788;2022-08-19T17:27:40;20.50;;;7.38;;
12212;SDS011;6169;44.158;22.788;2022-08-19T17:32:42;13.30;;;6.28;;
12212;SDS011;6169;44.158;22.788;2022-08-19T17:37:46;17.52;;;7.57;;
12212;SDS011;6169;44.158;22.788;2022-08-19T17:42:49;12.63;;;9.05;;
12212;SDS011;6169;44.158;22.788;2022-08-19T17:47:53;15.77;;;8.65;;
12212;SDS011;6169;44.158;22.788;2022-08-19T17:52:57;7.70;;;6.32;;
12212;SDS011;6169;44.158;22.788;2022-08-19T17:58:00;16.00;;;6.72;;
12212;SDS011;6169;44.158;22.788;2022-08-19T18:03:04;14.60;;;8.45;;
12212;SDS011;6169;44.158;22.788;2022-08-19T18:08:09;14.85;;;8.82;;
12212;SDS011;6169;44.158;22.788;2022-08-19T18:13:11;19.33;;;8.80;;
12212;SDS011;6169;44.158;22.788;2022-08-19T18:18:14;12.85;;;7.88;;
12212;SDS011;6169;44.158;22.788;2022-08-19T18:23:17;15.57;;;7.85;;
12212;SDS011;6169;44.158;22.788;2022-08-19T18:28:20;12.38;;;7.75;;
12212;SDS011;6169;44.158;22.788;2022-08-19T18:33:23;15.90;;;7.95;;
12212;SDS011;6169;44.158;22.788;2022-08-19T18:38:27;13.98;;;6.43;;
12212;SDS011;6169;44.158;22.788;2022-08-19T18:43:46;10.25;;;7.13;;
12212;SDS011;6169;44.158;22.788;2022-08-19T18:49:06;13.43;;;8.38;;
12212;SDS011;6169;44.158;22.788;2022-08-19T18:54:11;15.65;;;8.48;;
12212;SDS011;6169;44.158;22.788;2022-08-19T18:59:13;11.68;;;7.88;;
12212;SDS011;6169;44.158;22.788;2022-08-19T19:04:16;10.93;;;8.95;;
12212;SDS011;6169;44.158;22.788;2022-08-19T19:09:22;25.75;;;13.02;;
12212;SDS011;6169;44.158;22.788;2022-08-19T19:14:26;36.22;;;20.80;;
12212;SDS011;6169;44.158;22.788;2022-08-19T19:19:31;28.95;;;16.67;;
12212;SDS011;6169;44.158;22.788;2022-08-19T19:24:36;21.75;;;14.15;;
12212;SDS011;6169;44.158;22.788;2022-08-19T19:29:43;21.67;;;11.43;;
12212;SDS011;6169;44.158;22.788;2022-08-19T19:34:45;13.15;;;9.20;;
12212;SDS011;6169;44.158;22.788;2022-08-19T19:39:49;15.48;;;8.75;;
12212;SDS011;6169;44.158;22.788;2022-08-19T19:44:52;10.52;;;6.55;;
12212;SDS011;6169;44.158;22.788;2022-08-19T19:49:56;10.23;;;6.47;;
12212;SDS011;6169;44.158;22.788;2022-08-19T19:55:00;9.68;;;7.05;;
12212;SDS011;6169;44.158;22.788;2022-08-19T20:00:03;10.98;;;6.65;;
12212;SDS011;6169;44.158;22.788;2022-08-19T20:05:07;12.57;;;7.63;;
12212;SDS011;6169;44.158;22.788;2022-08-19T20:10:13;12.57;;;6.43;;
12212;SDS011;6169;44.158;22.788;2022-08-19T20:15:15;12.68;;;7.18;;
12212;SDS011;6169;44.158;22.788;2022-08-19T20:20:17;13.73;;;7.45;;
12212;SDS011;6169;44.158;22.788;2022-08-19T20:25:21;12.32;;;7.40;;
12212;SDS011;6169;44.158;22.788;2022-08-19T20:30:24;12.50;;;7.25;;
12212;SDS011;6169;44.158;22.788;2022-08-19T20:35:26;13.57;;;6.47;;
12212;SDS011;6169;44.158;22.788;2022-08-19T20:40:30;18.98;;;7.32;;
12212;SDS011;6169;44.158;22.788;2022-08-19T20:45:34;17.80;;;7.80;;
12212;SDS011;6169;44.158;22.788;2022-08-19T20:50:36;15.95;;;6.60;;
12212;SDS011;6169;44.158;22.788;2022-08-19T20:55:41;15.23;;;7.28;;
12212;SDS011;6169;44.158;22.788;2022-08-19T21:00:44;12.18;;;7.10;;
12212;SDS011;6169;44.158;22.788;2022-08-19T21:05:47;10.82;;;7.28;;
12212;SDS011;6169;44.158;22.788;2022-08-19T21:10:51;9.23;;;5.78;;
12212;SDS011;6169;44.158;22.788;2022-08-19T21:15:54;8.57;;;6.07;;
12212;SDS011;6169;44.158;22.788;2022-08-19T21:20:56;8.80;;;5.80;;
12212;SDS011;6169;44.158;22.788;2022-08-19T21:25:59;8.55;;;6.20;;
12212;SDS011;6169;44.158;22.788;2022-08-19T21:31:02;9.95;;;6.53;;
12212;SDS011;6169;44.158;22.788;2022-08-19T21:36:09;9.90;;;6.07;;
12212;SDS011;6169;44.158;22.788;2022-08-19T21:41:13;23.70;;;7.07;;
12212;SDS011;6169;44.158;22.788;2022-08-19T21:46:15;10.82;;;5.70;;
12212;SDS011;6169;44.158;22.788;2022-08-19T21:51:18;58.97;;;9.43;;
12212;SDS011;6169;44.158;22.788;2022-08-19T21:56:22;9.02;;;5.63;;
12212;SDS011;6169;44.158;22.788;2022-08-19T22:01:25;8.70;;;6.18;;
12212;SDS011;6169;44.158;22.788;2022-08-19T22:06:27;8.98;;;5.65;;
12212;SDS011;6169;44.158;22.788;2022-08-19T22:11:31;8.07;;;5.38;;
12212;SDS011;6169;44.158;22.788;2022-08-19T22:16:33;8.63;;;6.32;;
12212;SDS011;6169;44.158;22.788;2022-08-19T22:21:36;9.93;;;6.03;;
12212;SDS011;6169;44.158;22.788;2022-08-19T22:26:39;14.20;;;7.13;;
12212;SDS011;6169;44.158;22.788;2022-08-19T22:31:42;15.65;;;7.28;;
12212;SDS011;6169;44.158;22.788;2022-08-19T22:36:44;10.02;;;5.47;;
12212;SDS011;6169;44.158;22.788;2022-08-19T22:41:48;13.40;;;6.93;;
12212;SDS011;6169;44.158;22.788;2022-08-19T22:46:50;7.35;;;6.65;;
12212;SDS011;6169;44.158;22.788;2022-08-19T22:51:53;8.85;;;6.70;;
12212;SDS011;6169;44.158;22.788;2022-08-19T22:57:13;6.72;;;5.88;;
12212;SDS011;6169;44.158;22.788;2022-08-19T23:02:19;8.85;;;5.80;;
12212;SDS011;6169;44.158;22.788;2022-08-19T23:07:22;10.23;;;6.50;;
12212;SDS011;6169;44.158;22.788;2022-08-19T23:12:27;10.07;;;6.28;;
12212;SDS011;6169;44.158;22.788;2022-08-19T23:17:31;10.02;;;6.55;;
12212;SDS011;6169;44.158;22.788;2022-08-19T23:22:35;8.05;;;6.57;;
12212;SDS011;6169;44.158;22.788;2022-08-19T23:27:40;9.50;;;6.88;;
12212;SDS011;6169;44.158;22.788;2022-08-19T23:33:00;13.68;;;6.45;;
12212;SDS011;6169;44.158;22.788;2022-08-19T23:38:08;14.82;;;6.75;;
12212;SDS011;6169;44.158;22.788;2022-08-19T23:43:12;9.38;;;6.55;;
12212;SDS011;6169;44.158;22.788;2022-08-19T23:48:14;9.25;;;6.47;;
12212;SDS011;6169;44.158;22.788;2022-08-19T23:53:17;7.20;;;6.13;;
12212;SDS011;6169;44.158;22.788;2022-08-19T23:58:22;7.38;;;6.45;;
